Аэропорт: Павлодар. Павлодар

ICAO: UASP

METAR:
2019-09-21 16:00:00
UASP 211600Z 09005MPS CAVOK 10/00 Q1019 R21/0///70 NOSIG RMK QFE753/1004
METAR:
2019-09-21 14:00:00
TAF UASP 211400Z 2115/2124 09006MPS 9999 SCT030 TEMPO 2115/2120 5000 FU SCT011 TEMPO 2120/2124 13012MPS 3100 FU BKN011